sensor_id;sensor_type;location;lat;lon;timestamp;pressure;altitude;pressure_sealevel;temperature;humidity
50702;BME280;36670;50.094;8.496;2023-02-21T00:01:24;100846.94;;;9.03;61.40
50702;BME280;36670;50.094;8.496;2023-02-21T00:04:08;100852.19;;;8.67;62.53
50702;BME280;36670;50.094;8.496;2023-02-21T00:06:52;100844.03;;;8.79;61.84
50702;BME280;36670;50.094;8.496;2023-02-21T00:09:38;100836.97;;;8.65;62.87
50702;BME280;36670;50.094;8.496;2023-02-21T00:12:21;100839.44;;;8.73;62.72
50702;BME280;36670;50.094;8.496;2023-02-21T00:15:05;100835.94;;;8.84;62.21
50702;BME280;36670;50.094;8.496;2023-02-21T00:17:49;100832.59;;;8.82;61.80
50702;BME280;36670;50.094;8.496;2023-02-21T00:20:33;100834.00;;;8.85;62.15
50702;BME280;36670;50.094;8.496;2023-02-21T00:23:17;100829.44;;;8.79;61.81
50702;BME280;36670;50.094;8.496;2023-02-21T00:26:01;100830.03;;;8.81;62.00
50702;BME280;36670;50.094;8.496;2023-02-21T00:28:45;100825.16;;;8.83;62.32
50702;BME280;36670;50.094;8.496;2023-02-21T00:31:29;100823.91;;;8.79;62.20
50702;BME280;36670;50.094;8.496;2023-02-21T00:34:13;100824.16;;;8.77;62.07
50702;BME280;36670;50.094;8.496;2023-02-21T00:36:56;100819.19;;;8.86;61.92
50702;BME280;36670;50.094;8.496;2023-02-21T00:39:40;100818.47;;;8.91;61.21
50702;BME280;36670;50.094;8.496;2023-02-21T00:42:24;100821.41;;;8.96;61.12
50702;BME280;36670;50.094;8.496;2023-02-21T00:45:09;100815.00;;;8.33;62.83
50702;BME280;36670;50.094;8.496;2023-02-21T00:47:53;100818.78;;;8.13;62.76
50702;BME280;36670;50.094;8.496;2023-02-21T00:50:37;100814.56;;;8.36;62.15
50702;BME280;36670;50.094;8.496;2023-02-21T00:53:23;100817.06;;;8.37;62.37
50702;BME280;36670;50.094;8.496;2023-02-21T00:56:06;100815.53;;;8.48;62.26
50702;BME280;36670;50.094;8.496;2023-02-21T00:58:50;100819.25;;;7.78;63.96
50702;BME280;36670;50.094;8.496;2023-02-21T01:01:34;100819.50;;;7.70;64.60
50702;BME280;36670;50.094;8.496;2023-02-21T01:04:18;100819.41;;;7.83;64.15
50702;BME280;36670;50.094;8.496;2023-02-21T01:07:02;100821.81;;;7.73;64.55
50702;BME280;36670;50.094;8.496;2023-02-21T01:09:46;100829.00;;;8.06;63.68
50702;BME280;36670;50.094;8.496;2023-02-21T01:12:30;100828.09;;;8.12;63.60
50702;BME280;36670;50.094;8.496;2023-02-21T01:15:14;100827.72;;;8.09;63.64
50702;BME280;36670;50.094;8.496;2023-02-21T01:17:58;100842.41;;;8.21;63.17
50702;BME280;36670;50.094;8.496;2023-02-21T01:20:42;100834.63;;;8.11;62.89
50702;BME280;36670;50.094;8.496;2023-02-21T01:23:26;100832.56;;;8.07;63.12
50702;BME280;36670;50.094;8.496;2023-02-21T01:26:10;100807.06;;;7.93;63.48
50702;BME280;36670;50.094;8.496;2023-02-21T01:28:54;100838.91;;;8.07;62.95
50702;BME280;36670;50.094;8.496;2023-02-21T01:31:38;100847.25;;;7.62;63.75
50702;BME280;36670;50.094;8.496;2023-02-21T01:34:22;100857.00;;;6.92;66.89
50702;BME280;36670;50.094;8.496;2023-02-21T01:37:06;100852.25;;;7.26;65.83
50702;BME280;36670;50.094;8.496;2023-02-21T01:39:50;100842.41;;;7.57;65.28
50702;BME280;36670;50.094;8.496;2023-02-21T01:42:34;100841.47;;;7.77;64.73
50702;BME280;36670;50.094;8.496;2023-02-21T01:48:11;100842.59;;;7.56;64.78
50702;BME280;36670;50.094;8.496;2023-02-21T01:50:57;100848.34;;;7.02;66.02
50702;BME280;36670;50.094;8.496;2023-02-21T01:53:42;100833.56;;;7.03;66.57
50702;BME280;36670;50.094;8.496;2023-02-21T01:56:27;100827.91;;;7.43;65.34
50702;BME280;36670;50.094;8.496;2023-02-21T01:59:12;100821.44;;;7.63;64.66
50702;BME280;36670;50.094;8.496;2023-02-21T02:02:18;100814.31;;;7.48;64.76
50702;BME280;36670;50.094;8.496;2023-02-21T02:05:04;100818.56;;;7.06;66.64
50702;BME280;36670;50.094;8.496;2023-02-21T02:07:50;100818.13;;;7.09;66.39
50702;BME280;36670;50.094;8.496;2023-02-21T02:10:34;100822.91;;;7.27;65.42
50702;BME280;36670;50.094;8.496;2023-02-21T02:29:43;100822.41;;;7.43;65.19
50702;BME280;36670;50.094;8.496;2023-02-21T02:35:09;100816.84;;;7.11;65.92
50702;BME280;36670;50.094;8.496;2023-02-21T02:37:48;100811.88;;;7.33;65.67
50702;BME280;36670;50.094;8.496;2023-02-21T02:48:42;100808.09;;;7.28;65.03
50702;BME280;36670;50.094;8.496;2023-02-21T02:51:11;100805.16;;;6.51;66.68
50702;BME280;36670;50.094;8.496;2023-02-21T02:53:36;100807.28;;;6.22;67.90
50702;BME280;36670;50.094;8.496;2023-02-21T02:56:07;100802.19;;;6.65;66.34
50702;BME280;36670;50.094;8.496;2023-02-21T02:58:54;100798.53;;;6.92;66.56
50702;BME280;36670;50.094;8.496;2023-02-21T03:01:47;100792.75;;;7.13;65.98
50702;BME280;36670;50.094;8.496;2023-02-21T03:10:24;100803.53;;;7.08;65.64
50702;BME280;36670;50.094;8.496;2023-02-21T03:15:48;100804.44;;;7.41;65.25
50702;BME280;36670;50.094;8.496;2023-02-21T03:21:02;100803.84;;;6.73;66.29
50702;BME280;36670;50.094;8.496;2023-02-21T03:23:30;100809.19;;;6.48;67.64
50702;BME280;36670;50.094;8.496;2023-02-21T03:25:58;100807.00;;;6.83;66.42
50702;BME280;36670;50.094;8.496;2023-02-21T03:28:27;100804.59;;;7.07;66.06
50702;BME280;36670;50.094;8.496;2023-02-21T03:30:55;100805.88;;;7.05;66.10
50702;BME280;36670;50.094;8.496;2023-02-21T03:33:22;100796.66;;;6.79;66.63
50702;BME280;36670;50.094;8.496;2023-02-21T03:35:48;100807.53;;;7.12;66.29
50702;BME280;36670;50.094;8.496;2023-02-21T03:38:14;100794.69;;;7.06;66.44
50702;BME280;36670;50.094;8.496;2023-02-21T03:40:39;100791.03;;;7.12;66.38
50702;BME280;36670;50.094;8.496;2023-02-21T03:43:05;100792.03;;;7.25;65.48
50702;BME280;36670;50.094;8.496;2023-02-21T03:45:34;100793.03;;;7.37;65.17
50702;BME280;36670;50.094;8.496;2023-02-21T03:47:59;100790.75;;;7.34;65.43
50702;BME280;36670;50.094;8.496;2023-02-21T03:50:25;100782.94;;;7.31;65.23
50702;BME280;36670;50.094;8.496;2023-02-21T03:52:50;100785.66;;;7.38;64.99
50702;BME280;36670;50.094;8.496;2023-02-21T03:55:16;100789.66;;;6.96;66.14
50702;BME280;36670;50.094;8.496;2023-02-21T03:57:41;100781.47;;;7.28;64.91
50702;BME280;36670;50.094;8.496;2023-02-21T04:00:07;100790.69;;;6.95;65.74
50702;BME280;36670;50.094;8.496;2023-02-21T04:02:33;100782.25;;;6.97;64.76
50702;BME280;36670;50.094;8.496;2023-02-21T04:04:58;100787.28;;;7.00;65.46
50702;BME280;36670;50.094;8.496;2023-02-21T04:07:24;100792.19;;;6.84;65.55
50702;BME280;36670;50.094;8.496;2023-02-21T04:09:49;100789.88;;;6.95;65.45
50702;BME280;36670;50.094;8.496;2023-02-21T04:12:15;100783.56;;;6.88;65.53
50702;BME280;36670;50.094;8.496;2023-02-21T04:14:40;100786.75;;;6.78;65.35
50702;BME280;36670;50.094;8.496;2023-02-21T04:17:05;100791.56;;;6.89;65.25
50702;BME280;36670;50.094;8.496;2023-02-21T04:19:31;100791.72;;;7.01;64.98
50702;BME280;36670;50.094;8.496;2023-02-21T04:21:56;100784.06;;;7.16;64.72
50702;BME280;36670;50.094;8.496;2023-02-21T04:24:22;100775.91;;;6.96;64.90
50702;BME280;36670;50.094;8.496;2023-02-21T04:26:47;100783.50;;;6.94;65.17
50702;BME280;36670;50.094;8.496;2023-02-21T04:29:12;100791.94;;;6.99;64.38
50702;BME280;36670;50.094;8.496;2023-02-21T04:31:38;100795.59;;;6.87;65.70
50702;BME280;36670;50.094;8.496;2023-02-21T04:34:03;100794.34;;;6.69;65.81
50702;BME280;36670;50.094;8.496;2023-02-21T04:36:29;100793.75;;;6.67;65.34
50702;BME280;36670;50.094;8.496;2023-02-21T04:38:54;100786.31;;;6.81;65.65
50702;BME280;36670;50.094;8.496;2023-02-21T04:41:20;100788.00;;;6.82;65.66
50702;BME280;36670;50.094;8.496;2023-02-21T04:43:45;100782.44;;;7.02;65.05
50702;BME280;36670;50.094;8.496;2023-02-21T04:46:12;100793.03;;;6.92;65.30
50702;BME280;36670;50.094;8.496;2023-02-21T04:48:43;100789.44;;;6.91;65.01
50702;BME280;36670;50.094;8.496;2023-02-21T04:51:10;100791.59;;;6.82;64.88
50702;BME280;36670;50.094;8.496;2023-02-21T04:53:36;100781.06;;;6.66;65.85
50702;BME280;36670;50.094;8.496;2023-02-21T04:56:01;100777.50;;;6.65;66.24
50702;BME280;36670;50.094;8.496;2023-02-21T04:58:27;100771.59;;;6.55;66.25
50702;BME280;36670;50.094;8.496;2023-02-21T05:00:52;100780.06;;;6.47;66.16
50702;BME280;36670;50.094;8.496;2023-02-21T05:03:17;100770.31;;;6.64;65.97
50702;BME280;36670;50.094;8.496;2023-02-21T05:05:43;100772.25;;;6.37;66.27
50702;BME280;36670;50.094;8.496;2023-02-21T05:08:08;100773.28;;;6.63;65.79
50702;BME280;36670;50.094;8.496;2023-02-21T05:10:33;100770.69;;;6.75;65.35
50702;BME280;36670;50.094;8.496;2023-02-21T05:12:59;100762.66;;;6.80;65.55
50702;BME280;36670;50.094;8.496;2023-02-21T05:15:24;100764.16;;;6.82;65.26
50702;BME280;36670;50.094;8.496;2023-02-21T05:17:49;100765.88;;;6.70;65.53
50702;BME280;36670;50.094;8.496;2023-02-21T05:20:15;100767.34;;;6.66;65.38
50702;BME280;36670;50.094;8.496;2023-02-21T05:22:41;100773.50;;;6.68;65.49
50702;BME280;36670;50.094;8.496;2023-02-21T05:25:14;100766.28;;;6.74;65.23
50702;BME280;36670;50.094;8.496;2023-02-21T05:27:39;100770.53;;;6.70;65.47
50702;BME280;36670;50.094;8.496;2023-02-21T05:30:06;100765.41;;;6.87;65.30
50702;BME280;36670;50.094;8.496;2023-02-21T05:32:31;100774.69;;;6.86;65.54
50702;BME280;36670;50.094;8.496;2023-02-21T05:34:56;100772.84;;;6.66;65.85
50702;BME280;36670;50.094;8.496;2023-02-21T05:37:22;100775.38;;;6.68;65.82
50702;BME280;36670;50.094;8.496;2023-02-21T05:39:47;100771.78;;;6.74;65.78
50702;BME280;36670;50.094;8.496;2023-02-21T05:42:12;100774.78;;;6.59;65.95
50702;BME280;36670;50.094;8.496;2023-02-21T05:44:38;100774.78;;;6.59;65.75
50702;BME280;36670;50.094;8.496;2023-02-21T05:47:03;100770.97;;;6.60;65.34
50702;BME280;36670;50.094;8.496;2023-02-21T05:49:31;100775.59;;;6.66;65.12
50702;BME280;36670;50.094;8.496;2023-02-21T05:51:56;100778.53;;;6.71;65.29
50702;BME280;36670;50.094;8.496;2023-02-21T05:54:21;100771.81;;;6.60;65.39
50702;BME280;36670;50.094;8.496;2023-02-21T05:56:49;100770.16;;;6.46;65.25
50702;BME280;36670;50.094;8.496;2023-02-21T05:59:16;100774.38;;;6.42;65.63
50702;BME280;36670;50.094;8.496;2023-02-21T06:01:43;100776.47;;;6.53;65.83
50702;BME280;36670;50.094;8.496;2023-02-21T06:04:08;100780.91;;;6.54;65.34
50702;BME280;36670;50.094;8.496;2023-02-21T06:06:34;100779.44;;;6.58;65.19
50702;BME280;36670;50.094;8.496;2023-02-21T06:08:59;100782.56;;;6.62;65.47
50702;BME280;36670;50.094;8.496;2023-02-21T06:11:28;100781.72;;;6.61;65.39
50702;BME280;36670;50.094;8.496;2023-02-21T06:13:56;100784.25;;;6.63;65.25
50702;BME280;36670;50.094;8.496;2023-02-21T06:16:22;100781.97;;;6.53;65.85
50702;BME280;36670;50.094;8.496;2023-02-21T06:18:52;100788.72;;;6.51;66.37
50702;BME280;36670;50.094;8.496;2023-02-21T06:21:17;100778.97;;;6.61;65.75
50702;BME280;36670;50.094;8.496;2023-02-21T06:23:43;100776.84;;;6.63;66.30
50702;BME280;36670;50.094;8.496;2023-02-21T06:26:08;100773.44;;;6.75;66.51
50702;BME280;36670;50.094;8.496;2023-02-21T06:28:33;100778.19;;;7.06;65.79
50702;BME280;36670;50.094;8.496;2023-02-21T06:30:58;100775.81;;;7.16;65.97
50702;BME280;36670;50.094;8.496;2023-02-21T06:33:24;100778.72;;;7.28;66.01
50702;BME280;36670;50.094;8.496;2023-02-21T06:35:49;100778.75;;;7.22;66.23
50702;BME280;36670;50.094;8.496;2023-02-21T06:38:14;100781.72;;;7.20;66.74
50702;BME280;36670;50.094;8.496;2023-02-21T06:40:40;100781.72;;;7.20;66.79
50702;BME280;36670;50.094;8.496;2023-02-21T06:43:05;100782.59;;;7.14;67.07
50702;BME280;36670;50.094;8.496;2023-02-21T06:45:30;100778.75;;;7.22;67.28
50702;BME280;36670;50.094;8.496;2023-02-21T06:47:56;100786.06;;;7.41;66.85
50702;BME280;36670;50.094;8.496;2023-02-21T06:50:21;100777.09;;;7.52;66.56
50702;BME280;36670;50.094;8.496;2023-02-21T06:52:46;100776.06;;;7.54;66.57
50702;BME280;36670;50.094;8.496;2023-02-21T06:55:11;100781.63;;;7.72;66.71
50702;BME280;36670;50.094;8.496;2023-02-21T06:57:37;100768.53;;;7.74;66.68
50702;BME280;36670;50.094;8.496;2023-02-21T07:00:04;100776.28;;;7.52;67.49
50702;BME280;36670;50.094;8.496;2023-02-21T07:02:29;100777.00;;;7.98;65.76
50702;BME280;36670;50.094;8.496;2023-02-21T07:04:54;100768.34;;;7.69;66.57
50702;BME280;36670;50.094;8.496;2023-02-21T07:07:19;100769.78;;;8.03;66.40
50702;BME280;36670;50.094;8.496;2023-02-21T07:09:45;100776.88;;;8.11;65.73
50702;BME280;36670;50.094;8.496;2023-02-21T07:12:10;100761.81;;;7.95;66.41
50702;BME280;36670;50.094;8.496;2023-02-21T07:14:35;100774.28;;;7.66;66.86
50702;BME280;36670;50.094;8.496;2023-02-21T07:17:01;100777.63;;;7.68;67.04
50702;BME280;36670;50.094;8.496;2023-02-21T07:19:26;100775.41;;;7.83;66.85
50702;BME280;36670;50.094;8.496;2023-02-21T07:21:51;100766.66;;;7.68;66.92
50702;BME280;36670;50.094;8.496;2023-02-21T07:24:17;100773.63;;;7.71;67.07
50702;BME280;36670;50.094;8.496;2023-02-21T07:26:42;100776.16;;;7.65;67.81
50702;BME280;36670;50.094;8.496;2023-02-21T07:29:07;100783.06;;;7.81;67.74
50702;BME280;36670;50.094;8.496;2023-02-21T07:31:33;100776.72;;;7.81;67.68
50702;BME280;36670;50.094;8.496;2023-02-21T07:33:58;100769.13;;;7.76;67.39
50702;BME280;36670;50.094;8.496;2023-02-21T07:36:24;100777.16;;;7.78;67.94
50702;BME280;36670;50.094;8.496;2023-02-21T07:38:49;100773.06;;;7.87;67.96
50702;BME280;36670;50.094;8.496;2023-02-21T07:41:15;100774.59;;;8.08;66.98
50702;BME280;36670;50.094;8.496;2023-02-21T07:43:41;100770.66;;;7.97;67.60
50702;BME280;36670;50.094;8.496;2023-02-21T07:46:09;100779.13;;;8.21;67.57
50702;BME280;36670;50.094;8.496;2023-02-21T07:48:35;100770.75;;;8.34;67.18
50702;BME280;36670;50.094;8.496;2023-02-21T07:51:00;100778.78;;;8.36;67.15
50702;BME280;36670;50.094;8.496;2023-02-21T07:53:26;100777.00;;;8.48;66.96
50702;BME280;36670;50.094;8.496;2023-02-21T07:55:51;100783.69;;;8.59;66.77
50702;BME280;36670;50.094;8.496;2023-02-21T07:58:16;100778.31;;;8.46;67.20
50702;BME280;36670;50.094;8.496;2023-02-21T08:00:42;100777.25;;;8.47;66.39
50702;BME280;36670;50.094;8.496;2023-02-21T08:03:11;100782.69;;;8.28;67.38
50702;BME280;36670;50.094;8.496;2023-02-21T08:05:36;100774.25;;;8.23;67.97
50702;BME280;36670;50.094;8.496;2023-02-21T08:08:01;100776.94;;;8.55;67.67
50702;BME280;36670;50.094;8.496;2023-02-21T08:10:27;100783.63;;;8.66;67.12
50702;BME280;36670;50.094;8.496;2023-02-21T08:12:53;100781.38;;;8.31;67.29
50702;BME280;36670;50.094;8.496;2023-02-21T08:15:18;100780.66;;;8.42;67.98
50702;BME280;36670;50.094;8.496;2023-02-21T08:17:47;100778.31;;;8.46;67.71
50702;BME280;36670;50.094;8.496;2023-02-21T08:20:12;100781.06;;;8.46;67.54
50702;BME280;36670;50.094;8.496;2023-02-21T08:22:38;100775.81;;;8.37;67.93
50702;BME280;36670;50.094;8.496;2023-02-21T08:25:03;100781.28;;;8.63;67.34
50702;BME280;36670;50.094;8.496;2023-02-21T08:27:29;100772.53;;;8.91;67.91
50702;BME280;36670;50.094;8.496;2023-02-21T08:29:54;100772.53;;;8.91;67.76
50702;BME280;36670;50.094;8.496;2023-02-21T08:32:19;100771.53;;;9.04;67.54
50702;BME280;36670;50.094;8.496;2023-02-21T08:34:45;100765.69;;;9.12;67.55
50702;BME280;36670;50.094;8.496;2023-02-21T08:37:11;100772.97;;;9.07;67.67
50702;BME280;36670;50.094;8.496;2023-02-21T08:39:47;100763.75;;;9.31;67.10
50702;BME280;36670;50.094;8.496;2023-02-21T08:42:13;100760.44;;;9.41;67.29
50702;BME280;36670;50.094;8.496;2023-02-21T08:44:38;100760.88;;;9.68;66.88
50702;BME280;36670;50.094;8.496;2023-02-21T08:47:06;100767.66;;;9.96;66.21
50702;BME280;36670;50.094;8.496;2023-02-21T08:49:32;100760.72;;;10.17;66.68
50702;BME280;36670;50.094;8.496;2023-02-21T08:51:57;100762.09;;;10.38;65.63
50702;BME280;36670;50.094;8.496;2023-02-21T08:54:22;100767.72;;;10.32;65.34
50702;BME280;36670;50.094;8.496;2023-02-21T08:56:48;100763.75;;;10.39;65.73
50702;BME280;36670;50.094;8.496;2023-02-21T08:59:14;100759.81;;;10.35;65.31
50702;BME280;36670;50.094;8.496;2023-02-21T09:01:39;100759.19;;;10.33;65.28
50702;BME280;36670;50.094;8.496;2023-02-21T09:04:05;100759.56;;;10.61;65.09
50702;BME280;36670;50.094;8.496;2023-02-21T09:06:30;100756.66;;;10.67;64.62
50702;BME280;36670;50.094;8.496;2023-02-21T09:08:56;100769.63;;;10.79;64.89
50702;BME280;36670;50.094;8.496;2023-02-21T09:11:22;100762.75;;;10.93;63.45
50702;BME280;36670;50.094;8.496;2023-02-21T09:13:47;100757.84;;;10.83;63.18
50702;BME280;36670;50.094;8.496;2023-02-21T09:16:12;100758.91;;;10.94;63.84
50702;BME280;36670;50.094;8.496;2023-02-21T09:18:37;100764.44;;;10.94;64.51
50702;BME280;36670;50.094;8.496;2023-02-21T09:21:05;100763.06;;;11.20;63.17
50702;BME280;36670;50.094;8.496;2023-02-21T09:23:30;100762.84;;;11.39;63.08
50702;BME280;36670;50.094;8.496;2023-02-21T09:25:56;100754.50;;;11.97;63.51
50702;BME280;36670;50.094;8.496;2023-02-21T09:28:21;100758.13;;;11.97;62.08
50702;BME280;36670;50.094;8.496;2023-02-21T09:30:47;100757.72;;;12.05;61.37
50702;BME280;36670;50.094;8.496;2023-02-21T09:33:14;100751.41;;;12.27;61.56
50702;BME280;36670;50.094;8.496;2023-02-21T09:35:39;100746.44;;;12.46;59.69
50702;BME280;36670;50.094;8.496;2023-02-21T09:38:05;100755.53;;;12.63;60.37
50702;BME280;36670;50.094;8.496;2023-02-21T09:43:02;100757.31;;;12.92;59.25
50702;BME280;36670;50.094;8.496;2023-02-21T09:45:30;100753.75;;;12.96;59.16
50702;BME280;36670;50.094;8.496;2023-02-21T09:47:58;100757.13;;;12.59;58.71
50702;BME280;36670;50.094;8.496;2023-02-21T09:50:30;100750.97;;;12.35;59.62
50702;BME280;36670;50.094;8.496;2023-02-21T09:52:58;100751.22;;;12.34;59.77
50702;BME280;36670;50.094;8.496;2023-02-21T09:55:32;100750.81;;;12.42;59.53
50702;BME280;36670;50.094;8.496;2023-02-21T09:57:59;100747.44;;;12.40;59.99
50702;BME280;36670;50.094;8.496;2023-02-21T10:00:32;100745.25;;;12.42;59.21
50702;BME280;36670;50.094;8.496;2023-02-21T10:05:44;100752.28;;;12.50;59.91
50702;BME280;36670;50.094;8.496;2023-02-21T10:08:16;100749.03;;;12.53;59.25
50702;BME280;36670;50.094;8.496;2023-02-21T10:10:49;100747.69;;;12.77;59.64
50702;BME280;36670;50.094;8.496;2023-02-21T10:16:29;100752.25;;;13.11;58.81
50702;BME280;36670;50.094;8.496;2023-02-21T10:21:41;100747.50;;;13.06;58.50
50702;BME280;36670;50.094;8.496;2023-02-21T10:24:14;100747.50;;;13.28;58.42
50702;BME280;36670;50.094;8.496;2023-02-21T10:26:41;100751.34;;;13.27;58.12
50702;BME280;36670;50.094;8.496;2023-02-21T10:31:45;100753.38;;;13.10;57.96
50702;BME280;36670;50.094;8.496;2023-02-21T10:34:25;100754.53;;;13.14;58.58
50702;BME280;36670;50.094;8.496;2023-02-21T10:36:53;100756.06;;;13.27;56.87
50702;BME280;36670;50.094;8.496;2023-02-21T10:39:43;100751.97;;;13.07;57.31
50702;BME280;36670;50.094;8.496;2023-02-21T10:42:17;100754.53;;;13.63;57.50
50702;BME280;36670;50.094;8.496;2023-02-21T10:44:46;100755.88;;;13.34;56.73
50702;BME280;36670;50.094;8.496;2023-02-21T10:47:18;100755.44;;;13.42;57.00
50702;BME280;36670;50.094;8.496;2023-02-21T10:50:05;100748.13;;;13.58;56.42
50702;BME280;36670;50.094;8.496;2023-02-21T10:52:36;100750.28;;;13.83;56.32
50702;BME280;36670;50.094;8.496;2023-02-21T10:55:05;100751.91;;;13.79;56.09
50702;BME280;36670;50.094;8.496;2023-02-21T10:57:40;100745.59;;;14.16;55.72
50702;BME280;36670;50.094;8.496;2023-02-21T11:00:07;100737.13;;;14.38;55.61
50702;BME280;36670;50.094;8.496;2023-02-21T11:02:42;100735.00;;;14.56;54.46
50702;BME280;36670;50.094;8.496;2023-02-21T11:05:16;100732.88;;;14.68;55.44
50702;BME280;36670;50.094;8.496;2023-02-21T11:08:02;100727.19;;;14.95;53.67
50702;BME280;36670;50.094;8.496;2023-02-21T11:13:16;100722.78;;;15.05;53.64
50702;BME280;36670;50.094;8.496;2023-02-21T11:15:43;100715.28;;;15.10;53.75
50702;BME280;36670;50.094;8.496;2023-02-21T11:20:41;100713.66;;;15.25;53.86
50702;BME280;36670;50.094;8.496;2023-02-21T11:23:18;100712.00;;;15.29;52.78
50702;BME280;36670;50.094;8.496;2023-02-21T11:25:45;100702.31;;;15.47;52.43
50702;BME280;36670;50.094;8.496;2023-02-21T11:30:48;100695.09;;;15.72;52.61
50702;BME280;36670;50.094;8.496;2023-02-21T11:33:20;100689.25;;;15.73;52.67
50702;BME280;36670;50.094;8.496;2023-02-21T11:35:51;100689.03;;;15.80;52.42
50702;BME280;36670;50.094;8.496;2023-02-21T11:38:34;100684.25;;;15.91;52.17
50702;BME280;36670;50.094;8.496;2023-02-21T11:41:01;100674.53;;;15.88;52.15
50702;BME280;36670;50.094;8.496;2023-02-21T11:43:29;100668.94;;;15.78;52.14
50702;BME280;36670;50.094;8.496;2023-02-21T11:46:22;100662.25;;;16.10;51.89
50702;BME280;36670;50.094;8.496;2023-02-21T11:49:25;100660.88;;;15.86;51.23
50702;BME280;36670;50.094;8.496;2023-02-21T11:51:53;100650.56;;;16.08;51.86
50702;BME280;36670;50.094;8.496;2023-02-21T11:54:23;100646.38;;;15.95;51.21
50702;BME280;36670;50.094;8.496;2023-02-21T11:57:17;100633.03;;;15.86;50.67
50702;BME280;36670;50.094;8.496;2023-02-21T12:00:20;100620.22;;;15.70;50.65
50702;BME280;36670;50.094;8.496;2023-02-21T12:03:28;100631.38;;;15.85;50.77
50702;BME280;36670;50.094;8.496;2023-02-21T12:17:18;100616.91;;;16.75;49.46
50702;BME280;36670;50.094;8.496;2023-02-21T12:36:14;100580.56;;;16.95;48.94
50702;BME280;36670;50.094;8.496;2023-02-21T12:44:29;100576.22;;;16.68;48.82
50702;BME280;36670;50.094;8.496;2023-02-21T12:47:21;100576.53;;;16.62;49.83
50702;BME280;36670;50.094;8.496;2023-02-21T12:52:33;100561.34;;;16.83;48.97
50702;BME280;36670;50.094;8.496;2023-02-21T12:57:52;100562.34;;;17.08;49.40
50702;BME280;36670;50.094;8.496;2023-02-21T13:00:24;100563.50;;;17.02;48.65
50702;BME280;36670;50.094;8.496;2023-02-21T13:05:57;100548.09;;;17.10;48.36
50702;BME280;36670;50.094;8.496;2023-02-21T13:12:13;100541.94;;;17.13;48.20
50702;BME280;36670;50.094;8.496;2023-02-21T13:14:44;100537.84;;;17.05;48.16
50702;BME280;36670;50.094;8.496;2023-02-21T13:17:13;100542.63;;;16.99;49.06
50702;BME280;36670;50.094;8.496;2023-02-21T13:19:49;100531.50;;;16.89;48.67
50702;BME280;36670;50.094;8.496;2023-02-21T13:25:40;100533.34;;;17.09;48.39
50702;BME280;36670;50.094;8.496;2023-02-21T13:28:26;100524.38;;;17.12;48.42
50702;BME280;36670;50.094;8.496;2023-02-21T13:30:58;100515.22;;;17.06;48.37
50702;BME280;36670;50.094;8.496;2023-02-21T13:33:49;100514.91;;;17.13;48.96
50702;BME280;36670;50.094;8.496;2023-02-21T13:36:27;100507.84;;;17.21;48.98
50702;BME280;36670;50.094;8.496;2023-02-21T13:38:59;100497.41;;;17.02;48.60
50702;BME280;36670;50.094;8.496;2023-02-21T13:41:28;100500.38;;;17.11;48.76
50702;BME280;36670;50.094;8.496;2023-02-21T13:43:56;100490.50;;;17.24;48.57
50702;BME280;36670;50.094;8.496;2023-02-21T13:51:52;100483.19;;;17.33;48.56
50702;BME280;36670;50.094;8.496;2023-02-21T13:54:23;100489.94;;;17.56;48.44
50702;BME280;36670;50.094;8.496;2023-02-21T13:56:49;100479.13;;;17.50;47.87
50702;BME280;36670;50.094;8.496;2023-02-21T13:59:31;100483.38;;;17.42;48.36
50702;BME280;36670;50.094;8.496;2023-02-21T14:02:20;100473.63;;;17.93;48.21
50702;BME280;36670;50.094;8.496;2023-02-21T14:04:57;100463.69;;;17.82;47.99
50702;BME280;36670;50.094;8.496;2023-02-21T14:07:44;100465.63;;;17.57;47.97
50702;BME280;36670;50.094;8.496;2023-02-21T14:10:23;100466.22;;;17.54;48.25
50702;BME280;36670;50.094;8.496;2023-02-21T14:12:55;100465.38;;;17.53;47.94
50702;BME280;36670;50.094;8.496;2023-02-21T14:15:21;100449.69;;;17.57;47.89
50702;BME280;36670;50.094;8.496;2023-02-21T14:17:50;100444.88;;;17.63;48.31
50702;BME280;36670;50.094;8.496;2023-02-21T14:20:18;100451.25;;;17.69;48.28
50702;BME280;36670;50.094;8.496;2023-02-21T14:22:49;100454.53;;;17.76;47.73
50702;BME280;36670;50.094;8.496;2023-02-21T14:25:20;100445.78;;;17.58;48.01
50702;BME280;36670;50.094;8.496;2023-02-21T14:27:48;100442.94;;;17.64;48.16
50702;BME280;36670;50.094;8.496;2023-02-21T14:30:21;100437.84;;;17.71;48.05
50702;BME280;36670;50.094;8.496;2023-02-21T14:32:50;100438.19;;;17.64;48.19
50702;BME280;36670;50.094;8.496;2023-02-21T14:43:20;100427.53;;;17.90;47.68
50702;BME280;36670;50.094;8.496;2023-02-21T15:00:13;100402.78;;;18.08;47.63
50702;BME280;36670;50.094;8.496;2023-02-21T15:03:31;100400.28;;;18.06;47.55
50702;BME280;36670;50.094;8.496;2023-02-21T15:05:44;100402.38;;;18.15;47.39
50702;BME280;36670;50.094;8.496;2023-02-21T15:08:20;100398.53;;;17.91;47.25
50702;BME280;36670;50.094;8.496;2023-02-21T15:10:49;100404.38;;;17.66;47.76
50702;BME280;36670;50.094;8.496;2023-02-21T15:13:27;100401.28;;;17.67;47.74
50702;BME280;36670;50.094;8.496;2023-02-21T15:15:59;100404.16;;;17.62;47.65
50702;BME280;36670;50.094;8.496;2023-02-21T15:18:34;100397.56;;;17.29;48.79
50702;BME280;36670;50.094;8.496;2023-02-21T15:21:18;100397.13;;;17.16;49.35
50702;BME280;36670;50.094;8.496;2023-02-21T15:23:46;100395.16;;;17.17;48.96
50702;BME280;36670;50.094;8.496;2023-02-21T15:26:29;100397.94;;;17.17;49.29
50702;BME280;36670;50.094;8.496;2023-02-21T15:31:47;100397.13;;;17.16;49.76
50702;BME280;36670;50.094;8.496;2023-02-21T15:34:15;100394.13;;;17.08;49.56
50702;BME280;36670;50.094;8.496;2023-02-21T15:36:43;100392.50;;;17.06;49.55
50702;BME280;36670;50.094;8.496;2023-02-21T15:39:32;100380.63;;;17.20;50.04
50702;BME280;36670;50.094;8.496;2023-02-21T15:42:00;100383.91;;;17.27;49.73